Time;durP1;ratioP1;P1;durP2;ratioP2;P2;SDS_P1;SDS_P2;PMS_P1;PMS_P2;Temp;Humidity;BMP_temperature;BMP_pressure;BME280_temperature;BME280_humidity;BME280_pressure;Samples;Min_cycle;Max_cycle;Signal;HPM_P1;HPM_P2
2023/02/16 00:01:14;;;;;;;35.90;18.23;;;;;;;-2.24;100.00;101637.94;4946827;28;20039;-82
2023/02/16 00:03:41;;;;;;;37.47;16.90;;;;;;;-2.25;100.00;101631.00;4945967;28;20035;-82
2023/02/16 00:06:13;;;;;;;31.43;16.33;;;;;;;-2.25;100.00;101624.94;4947666;29;20089;-82
2023/02/16 00:08:39;;;;;;;36.23;16.53;;;;;;;-2.24;100.00;101625.00;4931252;29;20039;-82
2023/02/16 00:14:08;;;;;;;36.97;17.67;;;;;;;-2.23;100.00;101629.34;4948356;29;20488;-82
2023/02/16 00:16:34;;;;;;;38.20;17.80;;;;;;;-2.20;100.00;101636.38;4973260;28;20416;-81
2023/02/16 00:19:12;;;;;;;38.80;18.00;;;;;;;-2.21;100.00;101634.59;4914572;28;20039;-82
2023/02/16 00:21:41;;;;;;;25.80;15.23;;;;;;;-2.23;100.00;101633.66;4930466;28;20130;-82
2023/02/16 00:24:07;;;;;;;36.17;17.07;;;;;;;-2.17;100.00;101633.94;4931058;28;20039;-82
2023/02/16 00:26:34;;;;;;;31.27;15.67;;;;;;;-2.14;100.00;101631.47;4912573;29;20052;-82
2023/02/16 00:29:01;;;;;;;36.17;17.33;;;;;;;-2.20;100.00;101636.38;4949852;28;20039;-82
2023/02/16 00:31:31;;;;;;;35.97;18.10;;;;;;;-2.30;100.00;101633.34;4948547;29;20035;-81
2023/02/16 00:34:02;;;;;;;32.17;15.27;;;;;;;-2.33;100.00;101625.47;4932964;29;20503;-81
2023/02/16 00:36:29;;;;;;;30.57;15.00;;;;;;;-2.33;100.00;101622.88;4934602;28;20070;-82
2023/02/16 00:38:59;;;;;;;32.27;17.27;;;;;;;-2.30;100.00;101630.75;4946726;28;20078;-81
2023/02/16 00:44:16;;;;;;;34.83;17.17;;;;;;;-2.31;100.00;101621.22;4926875;28;20540;-81
2023/02/16 00:46:44;;;;;;;36.10;16.47;;;;;;;-2.32;100.00;101626.34;4926886;28;20409;-82
2023/02/16 00:49:15;;;;;;;32.83;16.00;;;;;;;-2.27;100.00;101624.84;4963136;28;20043;-81
2023/02/16 00:51:42;;;;;;;40.13;17.23;;;;;;;-2.30;100.00;101624.69;5008688;23;20042;-82
2023/02/16 00:54:09;;;;;;;36.67;17.13;;;;;;;-2.32;100.00;101623.75;4949549;28;20043;-82
2023/02/16 00:56:36;;;;;;;32.20;15.93;;;;;;;-2.32;100.00;101616.00;4941629;28;20047;-82
2023/02/16 00:59:05;;;;;;;31.43;17.10;;;;;;;-2.33;100.00;101622.88;4933114;28;20059;-82
2023/02/16 01:01:33;;;;;;;35.47;17.63;;;;;;;-2.31;100.00;101612.59;4939154;28;20043;-82
2023/02/16 01:04:02;;;;;;;31.17;15.97;;;;;;;-2.36;100.00;101622.72;4911264;28;20050;-82
2023/02/16 01:12:03;;;;;;;30.27;16.27;;;;;;;-2.43;100.00;101620.66;4936098;28;20042;-82
2023/02/16 01:14:31;;;;;;;33.13;15.60;;;;;;;-2.45;100.00;101611.03;4953383;28;20562;-81
2023/02/16 01:16:58;;;;;;;37.40;16.50;;;;;;;-2.48;100.00;101605.72;4938072;28;20050;-81
2023/02/16 01:19:25;;;;;;;29.27;14.10;;;;;;;-2.51;100.00;101600.44;4924099;28;20039;-81
2023/02/16 01:21:51;;;;;;;32.37;15.43;;;;;;;-2.55;100.00;101608.03;5021689;28;20058;-81
2023/02/16 01:24:18;;;;;;;27.63;14.57;;;;;;;-2.53;100.00;101607.19;4941402;28;20051;-82
2023/02/16 01:26:48;;;;;;;34.00;16.07;;;;;;;-2.44;100.00;101608.53;4943112;28;20073;-82
2023/02/16 01:29:17;;;;;;;28.90;15.03;;;;;;;-2.57;100.00;101608.78;4939252;28;20042;-82
2023/02/16 01:31:45;;;;;;;29.63;15.50;;;;;;;-2.65;100.00;101600.63;4946392;28;20047;-82
2023/02/16 01:34:12;;;;;;;30.07;15.40;;;;;;;-2.67;100.00;101607.44;4934784;29;20050;-82
2023/02/16 01:36:42;;;;;;;32.27;15.77;;;;;;;-2.63;100.00;101606.78;4934848;28;20068;-82
2023/02/16 01:39:12;;;;;;;29.67;15.30;;;;;;;-2.69;100.00;101616.84;4930755;28;20043;-82
2023/02/16 01:42:02;;;;;;;30.83;16.20;;;;;;;-2.71;100.00;101602.94;4930972;28;20100;-82
2023/02/16 01:44:51;;;;;;;31.83;14.30;;;;;;;-2.71;100.00;101594.28;4940636;28;20047;-81
2023/02/16 01:47:29;;;;;;;30.03;14.40;;;;;;;-2.70;100.00;101583.13;4949208;28;20089;-82
2023/02/16 01:49:56;;;;;;;33.70;16.03;;;;;;;-2.68;100.00;101585.00;4953637;28;20104;-82
2023/02/16 01:52:35;;;;;;;32.80;16.33;;;;;;;-2.69;100.00;101596.16;4929547;28;20054;-81
2023/02/16 01:55:15;;;;;;;32.73;15.53;;;;;;;-2.70;100.00;101593.47;4930122;29;20048;-81
2023/02/16 01:57:48;;;;;;;27.80;14.73;;;;;;;-2.74;100.00;101601.91;4964665;28;20035;-82
2023/02/16 02:00:21;;;;;;;27.00;14.90;;;;;;;-2.77;100.00;101594.00;4940018;28;20047;-82
2023/02/16 02:02:51;;;;;;;32.40;14.50;;;;;;;-2.79;100.00;101583.56;4946672;28;20039;-82
2023/02/16 02:05:34;;;;;;;27.33;13.10;;;;;;;-2.78;100.00;101577.56;4930781;28;20488;-82
2023/02/16 02:08:34;;;;;;;29.23;14.77;;;;;;;-2.72;100.00;101585.63;4954815;28;20050;-79
2023/02/16 02:11:22;;;;;;;33.93;16.23;;;;;;;-2.77;100.00;101576.78;4939244;28;20113;-79
2023/02/16 02:13:55;;;;;;;31.83;14.87;;;;;;;-2.77;100.00;101575.91;4930720;28;20729;-78
2023/02/16 02:16:24;;;;;;;31.50;15.30;;;;;;;-2.76;100.00;101578.56;4938761;28;20035;-81
2023/02/16 02:18:51;;;;;;;29.77;14.70;;;;;;;-2.81;100.00;101584.31;4908106;29;20145;-79
2023/02/16 02:24:46;;;;;;;32.43;14.73;;;;;;;-2.80;100.00;101565.41;4924309;28;20519;-79
2023/02/16 02:27:26;;;;;;;27.40;14.40;;;;;;;-2.78;100.00;101564.66;4934718;29;20058;-79
2023/02/16 02:30:00;;;;;;;28.50;14.10;;;;;;;-2.79;100.00;101559.41;4936600;28;20051;-80
2023/02/16 02:32:46;;;;;;;31.03;14.97;;;;;;;-2.74;100.00;101564.00;4938423;28;20447;-79
2023/02/16 02:35:30;;;;;;;30.33;14.90;;;;;;;-2.70;100.00;101562.44;4945112;28;20039;-79
2023/02/16 02:38:10;;;;;;;31.30;14.27;;;;;;;-2.76;100.00;101562.16;4907691;29;20047;-79
2023/02/16 02:41:00;;;;;;;30.50;13.83;;;;;;;-2.81;100.00;101558.47;4936115;28;20287;-80
2023/02/16 02:43:33;;;;;;;28.37;13.57;;;;;;;-2.83;100.00;101555.81;4940942;28;20424;-79
2023/02/16 02:46:01;;;;;;;30.50;15.00;;;;;;;-2.85;100.00;101547.09;4934983;28;20416;-79
2023/02/16 02:48:29;;;;;;;28.43;14.37;;;;;;;-2.83;100.00;101551.50;4944593;28;20043;-79
2023/02/16 02:53:48;;;;;;;29.40;14.37;;;;;;;-2.83;100.00;101548.94;4939909;28;20520;-79
2023/02/16 03:01:56;;;;;;;27.93;14.50;;;;;;;-2.84;100.00;101543.69;4940014;28;20044;-79
2023/02/16 03:04:25;;;;;;;29.80;14.67;;;;;;;-2.87;100.00;101548.69;4928749;28;20269;-79
2023/02/16 03:06:54;;;;;;;32.00;15.70;;;;;;;-2.81;100.00;101553.28;4947754;28;20048;-79
2023/02/16 03:09:21;;;;;;;28.13;14.13;;;;;;;-2.86;100.00;101546.22;4923242;28;20050;-80
2023/02/16 03:14:38;;;;;;;30.17;15.23;;;;;;;-2.88;100.00;101550.41;4950324;28;20447;-80
2023/02/16 03:31:22;;;;;;;30.07;15.50;;;;;;;-2.76;100.00;101529.44;4970734;28;20030;-84
2023/02/16 03:33:53;;;;;;;32.10;15.00;;;;;;;-2.82;100.00;101523.97;4926928;28;20039;-84
2023/02/16 03:36:26;;;;;;;28.93;14.33;;;;;;;-2.83;100.00;101532.53;4931380;28;20063;-84
2023/02/16 03:38:54;;;;;;;28.90;14.17;;;;;;;-2.85;100.00;101524.72;4952250;28;20456;-83
2023/02/16 03:41:21;;;;;;;26.73;14.23;;;;;;;-2.85;100.00;101513.47;4944811;28;20158;-83
2023/02/16 03:43:48;;;;;;;25.43;13.93;;;;;;;-2.85;100.00;101522.13;4956598;28;20039;-84
2023/02/16 03:46:14;;;;;;;31.13;14.80;;;;;;;-2.83;100.00;101512.72;4940839;28;20050;-81
2023/02/16 03:48:41;;;;;;;27.37;13.77;;;;;;;-2.80;100.00;101519.72;4933751;28;20039;-84
2023/02/16 03:51:08;;;;;;;29.10;15.37;;;;;;;-2.81;100.00;101514.50;4921877;29;20051;-84
2023/02/16 03:53:35;;;;;;;36.33;15.13;;;;;;;-2.81;100.00;101520.56;4921241;28;20565;-82
2023/02/16 03:56:01;;;;;;;32.83;16.07;;;;;;;-2.77;100.00;101514.72;4931838;28;20047;-83
2023/02/16 03:58:28;;;;;;;30.73;15.27;;;;;;;-2.78;100.00;101524.97;5017010;28;20493;-84
2023/02/16 04:00:55;;;;;;;29.57;14.90;;;;;;;-2.79;100.00;101520.63;4945953;28;20051;-81
2023/02/16 04:03:22;;;;;;;28.37;14.03;;;;;;;-2.81;100.00;101522.25;4944836;28;20043;-83
2023/02/16 04:05:49;;;;;;;26.00;14.10;;;;;;;-2.83;100.00;101523.06;4915294;29;20047;-81
2023/02/16 04:08:15;;;;;;;30.17;14.80;;;;;;;-2.81;100.00;101522.25;4941251;28;20054;-81
2023/02/16 04:10:43;;;;;;;29.07;15.37;;;;;;;-2.79;100.00;101524.09;4941775;28;20043;-83
2023/02/16 04:13:09;;;;;;;32.47;16.03;;;;;;;-2.79;100.00;101526.69;4934791;29;20073;-82
2023/02/16 04:15:36;;;;;;;29.27;15.20;;;;;;;-2.83;100.00;101524.78;4932016;28;20044;-83
2023/02/16 04:18:03;;;;;;;28.80;14.80;;;;;;;-2.81;100.00;101535.19;4914642;28;20054;-83
2023/02/16 04:20:31;;;;;;;28.90;14.87;;;;;;;-2.81;100.00;101527.44;4925158;28;20097;-82
2023/02/16 04:22:58;;;;;;;26.97;14.93;;;;;;;-2.86;100.00;101529.78;4933169;29;20054;-82
2023/02/16 04:25:25;;;;;;;26.63;14.83;;;;;;;-2.87;100.00;101535.75;4924519;28;20402;-83
2023/02/16 04:27:52;;;;;;;32.53;15.43;;;;;;;-2.88;100.00;101534.88;5021963;28;20051;-80
2023/02/16 04:30:21;;;;;;;27.90;13.53;;;;;;;-2.87;100.00;101536.66;4935489;28;20051;-84
2023/02/16 04:32:48;;;;;;;27.33;13.97;;;;;;;-2.87;100.00;101536.66;4915810;28;20048;-82
2023/02/16 04:35:15;;;;;;;26.87;14.70;;;;;;;-2.86;100.00;101529.78;4902323;29;20055;-82
2023/02/16 04:37:42;;;;;;;24.30;13.40;;;;;;;-2.88;100.00;101529.72;4916358;29;20125;-82
2023/02/16 04:40:13;;;;;;;32.60;14.57;;;;;;;-2.87;100.00;101517.66;4932344;28;20569;-84
2023/02/16 04:42:41;;;;;;;29.43;14.33;;;;;;;-2.84;100.00;101518.72;4935390;28;20055;-82
2023/02/16 04:45:09;;;;;;;30.87;14.10;;;;;;;-2.81;100.00;101517.09;4916195;29;20043;-82
2023/02/16 04:47:36;;;;;;;29.97;14.23;;;;;;;-2.84;100.00;101528.19;4990715;28;20496;-84
2023/02/16 04:50:03;;;;;;;32.03;15.13;;;;;;;-2.84;100.00;101526.47;4914183;28;20050;-81
2023/02/16 04:52:29;;;;;;;30.97;14.50;;;;;;;-2.83;100.00;101517.91;4997472;28;20039;-83
2023/02/16 04:54:56;;;;;;;27.50;15.60;;;;;;;-2.81;100.00;101532.59;4980471;28;20037;-82
2023/02/16 04:57:23;;;;;;;30.83;15.97;;;;;;;-2.81;100.00;101523.13;4936022;28;20035;-84
2023/02/16 04:59:50;;;;;;;28.63;15.37;;;;;;;-2.78;100.00;101518.09;4948820;28;20591;-83
2023/02/16 05:02:17;;;;;;;30.20;15.10;;;;;;;-2.78;100.00;101512.94;4933772;28;20051;-83
2023/02/16 05:04:43;;;;;;;32.63;16.87;;;;;;;-2.72;100.00;101522.69;4922846;29;20138;-83
2023/02/16 05:07:10;;;;;;;28.67;15.20;;;;;;;-2.76;100.00;101521.66;4922139;28;20062;-84
2023/02/16 05:09:37;;;;;;;31.57;16.13;;;;;;;-2.79;100.00;101529.25;4930600;29;20107;-81
2023/02/16 05:14:49;;;;;;;25.60;13.67;;;;;;;-2.75;100.00;101540.66;4931092;28;20045;-81
2023/02/16 05:17:21;;;;;;;31.90;16.03;;;;;;;-2.74;100.00;101534.66;4934966;29;20036;-84
2023/02/16 05:19:56;;;;;;;33.57;16.73;;;;;;;-2.76;100.00;101534.59;4938620;28;20051;-84
2023/02/16 05:22:23;;;;;;;31.07;16.67;;;;;;;-2.73;100.00;101534.72;4919576;29;20513;-84
2023/02/16 05:24:50;;;;;;;29.53;14.70;;;;;;;-2.74;100.00;101532.06;4936695;28;20497;-83
2023/02/16 05:27:23;;;;;;;28.47;15.93;;;;;;;-2.72;100.00;101522.69;4962255;28;20125;-82
2023/02/16 05:29:50;;;;;;;35.97;18.20;;;;;;;-2.64;100.00;101529.09;4931681;29;20043;-83
2023/02/16 05:32:17;;;;;;;33.33;16.93;;;;;;;-2.70;100.00;101532.28;4939946;28;20051;-84
2023/02/16 05:34:44;;;;;;;34.57;17.93;;;;;;;-2.73;100.00;101529.56;4915356;29;20087;-82
2023/02/16 05:37:12;;;;;;;32.57;17.87;;;;;;;-2.76;100.00;101524.25;4915607;29;20473;-85
2023/02/16 05:39:39;;;;;;;35.83;16.80;;;;;;;-2.74;100.00;101525.19;4932480;28;20050;-85
2023/02/16 05:42:06;;;;;;;34.23;18.33;;;;;;;-2.71;100.00;101530.50;4974325;28;20139;-84
2023/02/16 05:44:33;;;;;;;34.57;16.53;;;;;;;-2.72;100.00;101527.84;4918831;28;20040;-84
2023/02/16 05:47:00;;;;;;;31.60;16.80;;;;;;;-2.73;100.00;101521.78;4925407;29;20047;-81
2023/02/16 05:49:26;;;;;;;28.17;15.73;;;;;;;-2.72;100.00;101522.69;4933315;28;20523;-84
2023/02/16 05:51:53;;;;;;;34.67;16.87;;;;;;;-2.73;100.00;101516.63;4950918;28;20051;-85
2023/02/16 05:54:20;;;;;;;36.53;17.57;;;;;;;-2.72;100.00;101515.81;4900563;29;20047;-85
2023/02/16 05:56:49;;;;;;;36.37;18.83;;;;;;;-2.70;100.00;101519.34;4920792;28;20607;-84
2023/02/16 05:59:16;;;;;;;36.80;17.20;;;;;;;-2.74;100.00;101525.19;4921284;29;20047;-85
2023/02/16 06:01:45;;;;;;;30.87;15.63;;;;;;;-2.76;100.00;101511.31;4929677;28;20043;-85
2023/02/16 06:04:16;;;;;;;31.47;17.07;;;;;;;-2.78;100.00;101517.22;4915589;29;20051;-85
2023/02/16 06:06:42;;;;;;;30.77;15.60;;;;;;;-2.80;100.00;101524.03;4945834;28;20565;-83
2023/02/16 06:09:09;;;;;;;35.67;16.83;;;;;;;-2.79;100.00;101528.38;4931878;28;20043;-85
2023/02/16 06:11:36;;;;;;;31.67;16.93;;;;;;;-2.83;100.00;101532.53;4918091;28;20051;-85
2023/02/16 06:14:05;;;;;;;36.63;16.87;;;;;;;-2.83;100.00;101535.13;4953432;28;20093;-82
2023/02/16 06:16:33;;;;;;;39.73;17.80;;;;;;;-2.85;100.00;101534.16;5014127;28;20043;-84
2023/02/16 06:19:00;;;;;;;33.83;17.83;;;;;;;-2.87;100.00;101535.75;4949804;28;20130;-84
2023/02/16 06:21:28;;;;;;;32.13;17.37;;;;;;;-2.87;100.00;101531.47;4917144;29;20051;-82
2023/02/16 06:23:54;;;;;;;34.03;17.27;;;;;;;-2.87;100.00;101536.66;4915187;29;20043;-80
2023/02/16 06:26:21;;;;;;;36.33;18.60;;;;;;;-2.81;100.00;101548.13;4930405;28;20054;-83
2023/02/16 06:28:48;;;;;;;39.20;17.47;;;;;;;-2.87;100.00;101547.00;4904731;29;20050;-80
2023/02/16 06:31:15;;;;;;;30.10;16.97;;;;;;;-2.87;100.00;101548.69;4924843;29;20055;-80
2023/02/16 06:33:42;;;;;;;29.20;16.30;;;;;;;-2.85;100.00;101552.25;4931987;28;20052;-82
2023/02/16 06:36:09;;;;;;;33.60;16.60;;;;;;;-2.85;100.00;101549.69;4929211;28;20105;-80
2023/02/16 06:38:36;;;;;;;36.43;18.37;;;;;;;-2.81;100.00;101550.69;4926322;28;20052;-81
2023/02/16 06:41:03;;;;;;;36.63;18.07;;;;;;;-2.82;100.00;101549.81;4930722;28;20496;-79
2023/02/16 06:43:30;;;;;;;34.50;17.60;;;;;;;-2.78;100.00;101540.50;4919972;29;20079;-82
2023/02/16 06:45:57;;;;;;;30.47;16.77;;;;;;;-2.75;100.00;101548.41;4950215;29;20069;-80
2023/02/16 06:48:24;;;;;;;31.60;16.23;;;;;;;-2.77;100.00;101545.75;4934685;29;20097;-84
2023/02/16 06:50:50;;;;;;;32.03;16.47;;;;;;;-2.75;100.00;101540.66;4934136;29;20546;-82
2023/02/16 06:53:17;;;;;;;31.43;16.70;;;;;;;-2.71;100.00;101532.22;4921696;29;20043;-81
2023/02/16 06:55:44;;;;;;;35.47;16.73;;;;;;;-2.65;100.00;101532.50;4955876;28;20039;-86
2023/02/16 06:58:11;;;;;;;30.13;18.17;;;;;;;-2.60;100.00;101538.78;4932862;28;20058;-80
2023/02/16 07:00:38;;;;;;;35.60;17.93;;;;;;;-2.60;100.00;101531.91;5033119;28;20046;-82
2023/02/16 07:03:05;;;;;;;35.03;17.13;;;;;;;-2.50;100.00;101529.75;4936148;28;20055;-80
2023/02/16 07:05:31;;;;;;;33.07;17.93;;;;;;;-2.53;100.00;101534.75;4934856;28;20078;-80
2023/02/16 07:07:58;;;;;;;29.77;17.40;;;;;;;-2.47;100.00;101529.88;4915941;29;20515;-81
2023/02/16 07:10:25;;;;;;;42.10;20.30;;;;;;;-2.40;100.00;101527.66;5013605;28;20035;-80
2023/02/16 07:12:56;;;;;;;36.87;19.00;;;;;;;-2.39;100.00;101534.59;4932997;29;20054;-79
2023/02/16 07:15:22;;;;;;;34.50;19.30;;;;;;;-2.37;100.00;101526.88;4932774;29;20047;-81
2023/02/16 07:17:49;;;;;;;35.13;17.77;;;;;;;-2.29;100.00;101533.31;4929525;29;20048;-79
2023/02/16 07:20:17;;;;;;;36.63;17.90;;;;;;;-2.28;100.00;101525.59;4914267;29;20039;-83
2023/02/16 07:22:43;;;;;;;35.60;18.73;;;;;;;-2.23;100.00;101515.47;4923333;29;20727;-79
2023/02/16 07:25:10;;;;;;;36.07;19.13;;;;;;;-2.12;100.00;101510.75;4935849;28;20047;-80
2023/02/16 07:27:37;;;;;;;35.27;18.37;;;;;;;-2.11;100.00;101512.53;4920933;28;20043;-79
2023/02/16 07:30:04;;;;;;;41.03;18.87;;;;;;;-2.12;100.00;101514.22;4934454;28;20101;-79
2023/02/16 07:32:31;;;;;;;37.37;18.33;;;;;;;-2.06;100.00;101513.63;4929805;29;20509;-79
2023/02/16 07:34:58;;;;;;;39.70;19.97;;;;;;;-2.04;100.00;101510.28;4913286;29;20398;-79
2023/02/16 07:37:24;;;;;;;35.93;19.10;;;;;;;-2.00;100.00;101514.78;4915098;28;20082;-80
2023/02/16 07:39:52;;;;;;;34.50;18.43;;;;;;;-1.94;100.00;101516.75;4933443;28;20055;-79
2023/02/16 07:42:19;;;;;;;38.57;20.63;;;;;;;-1.86;100.00;101511.91;4933374;28;20051;-79
2023/02/16 07:44:46;;;;;;;35.67;18.60;;;;;;;-1.75;100.00;101521.03;4952716;28;20074;-79
2023/02/16 07:47:13;;;;;;;34.20;18.80;;;;;;;-1.71;100.00;101522.91;4944965;28;20043;-79
2023/02/16 07:49:40;;;;;;;37.63;19.00;;;;;;;-1.68;100.00;101527.34;4917152;29;20047;-80
2023/02/16 07:52:06;;;;;;;30.70;18.00;;;;;;;-1.61;100.00;101535.44;4924538;28;20571;-79
2023/02/16 07:54:33;;;;;;;42.43;22.13;;;;;;;-1.58;100.00;101535.59;4935042;28;20122;-79
2023/02/16 07:57:00;;;;;;;38.37;19.70;;;;;;;-1.50;100.00;101530.75;4934210;28;20050;-79
2023/02/16 07:59:27;;;;;;;41.50;19.67;;;;;;;-1.48;100.00;101539.44;4929067;28;20050;-80
2023/02/16 08:01:53;;;;;;;39.40;20.27;;;;;;;-1.42;100.00;101545.78;4941235;28;20548;-79
2023/02/16 08:04:23;;;;;;;35.27;19.57;;;;;;;-1.37;100.00;101539.91;4920607;28;20097;-80
2023/02/16 08:06:50;;;;;;;39.70;22.47;;;;;;;-1.27;100.00;101540.34;5024814;28;20047;-79
2023/02/16 08:09:17;;;;;;;42.80;21.80;;;;;;;-1.15;100.00;101548.63;4918378;29;20436;-80
2023/02/16 08:11:44;;;;;;;41.83;21.10;;;;;;;-0.99;100.00;101542.38;4935162;29;20050;-79
2023/02/16 08:14:11;;;;;;;43.00;23.07;;;;;;;-1.02;100.00;101550.00;4938868;28;20086;-80
2023/02/16 08:16:37;;;;;;;42.60;21.13;;;;;;;-0.96;100.00;101550.25;4952386;28;20060;-80
2023/02/16 08:19:04;;;;;;;43.53;23.60;;;;;;;-0.90;100.00;101547.91;5020002;28;20142;-80
2023/02/16 08:21:32;;;;;;;44.07;23.10;;;;;;;-0.77;100.00;101549.28;4933240;29;20116;-80
2023/02/16 08:24:01;;;;;;;50.00;24.47;;;;;;;-0.63;100.00;101547.22;4939660;29;20511;-79
2023/02/16 08:26:38;;;;;;;44.90;23.60;;;;;;;-0.53;100.00;101551.06;4926749;28;20407;-80
2023/02/16 08:29:08;;;;;;;44.47;21.73;;;;;;;-0.49;100.00;101551.25;4951628;28;20125;-80
2023/02/16 08:31:36;;;;;;;47.17;24.30;;;;;;;-0.33;100.00;101550.13;4954537;28;20100;-80
2023/02/16 08:34:04;;;;;;;49.37;26.40;;;;;;;-0.16;100.00;101545.56;4929450;28;20056;-79
2023/02/16 08:36:34;;;;;;;51.43;25.90;;;;;;;-0.17;100.00;101542.09;4924322;28;20055;-80
2023/02/16 08:39:03;;;;;;;48.57;25.13;;;;;;;-0.05;100.00;101539.94;4915638;28;20416;-80
2023/02/16 08:41:32;;;;;;;52.03;27.97;;;;;;;0.09;100.00;101536.97;4915339;29;20063;-80
2023/02/16 08:43:59;;;;;;;51.37;27.20;;;;;;;0.13;100.00;101547.50;4929685;28;20469;-80
2023/02/16 08:46:28;;;;;;;50.50;25.17;;;;;;;0.13;100.00;101537.09;4953578;28;20059;-79
2023/02/16 08:48:59;;;;;;;51.63;28.47;;;;;;;0.20;100.00;101538.22;4987513;28;20868;-80
2023/02/16 08:51:31;;;;;;;50.57;27.20;;;;;;;0.26;100.00;101528.94;4940997;28;20086;-80
2023/02/16 08:53:58;;;;;;;49.63;26.70;;;;;;;0.29;100.00;101538.53;4936842;28;20050;-81
2023/02/16 08:56:28;;;;;;;55.47;27.37;;;;;;;0.35;100.00;101530.97;5042982;28;20049;-80
2023/02/16 08:58:55;;;;;;;50.23;26.87;;;;;;;0.42;100.00;101521.63;4945787;28;20044;-80
2023/02/16 09:01:22;;;;;;;50.17;27.43;;;;;;;0.52;100.00;101527.22;4917628;28;20059;-83
2023/02/16 09:03:50;;;;;;;55.03;28.37;;;;;;;0.59;100.00;101517.94;4925945;28;20047;-82
2023/02/16 09:06:21;;;;;;;56.03;28.83;;;;;;;0.73;100.00;101518.38;4931161;28;20061;-83
2023/02/16 09:08:52;;;;;;;57.43;29.33;;;;;;;0.92;100.00;101515.53;4961081;28;20044;-83
2023/02/16 09:11:20;;;;;;;59.57;30.90;;;;;;;1.03;100.00;101521.97;4951952;28;20766;-82
2023/02/16 09:13:47;;;;;;;54.53;28.93;;;;;;;1.08;100.00;101516.91;4950399;28;20044;-82
2023/02/16 09:16:18;;;;;;;55.83;29.77;;;;;;;1.23;100.00;101508.69;4926250;28;20051;-82
2023/02/16 09:18:45;;;;;;;61.27;31.43;;;;;;;1.43;100.00;101502.41;4935852;28;20046;-82
2023/02/16 09:21:14;;;;;;;62.67;32.10;;;;;;;1.61;100.00;101502.06;4974894;28;20051;-84
2023/02/16 09:23:43;;;;;;;55.63;29.90;;;;;;;1.75;100.00;101505.03;4973429;28;20424;-83
2023/02/16 09:26:10;;;;;;;59.47;31.20;;;;;;;1.90;100.00;101508.97;4921019;29;20416;-82
2023/02/16 09:28:38;;;;;;;57.67;30.70;;;;;;;2.15;100.00;101509.66;4919624;29;20044;-81
2023/02/16 09:31:14;;;;;;;57.97;29.50;;;;;;;2.28;100.00;101516.09;4920350;29;20047;-82
2023/02/16 09:33:42;;;;;;;51.30;27.73;;;;;;;2.28;100.00;101516.97;5002889;28;20055;-81
2023/02/16 09:36:10;;;;;;;48.63;26.67;;;;;;;2.55;100.00;101514.19;4918967;28;20185;-81
2023/02/16 09:38:38;;;;;;;47.33;26.93;;;;;;;2.61;100.00;101518.69;4951132;28;20059;-81
2023/02/16 09:41:20;;;;;;;57.87;29.33;;;;;;;2.78;100.00;101513.06;4920264;28;20082;-81
2023/02/16 09:43:54;;;;;;;50.83;27.73;;;;;;;3.02;100.00;101514.47;4941543;28;20042;-82
2023/02/16 09:46:23;;;;;;;49.03;28.10;;;;;;;3.15;100.00;101513.94;4913696;28;20516;-81
2023/02/16 09:48:51;;;;;;;50.80;27.40;;;;;;;3.36;100.00;101497.84;4952202;28;20042;-85
2023/02/16 09:51:22;;;;;;;45.90;26.83;;;;;;;3.54;100.00;101500.03;4916070;29;20047;-82
2023/02/16 09:54:09;;;;;;;47.40;26.07;;;;;;;3.74;100.00;101508.28;4933309;29;20459;-82
2023/02/16 09:56:45;;;;;;;44.60;26.07;;;;;;;3.80;100.00;101504.06;4941507;28;20112;-84
2023/02/16 09:59:23;;;;;;;41.53;24.83;;;;;;;4.09;100.00;101520.31;4939880;29;20055;-85
2023/02/16 10:02:00;;;;;;;42.80;25.47;;;;;;;4.32;100.00;101512.91;4949857;28;20054;-83
2023/02/16 10:04:38;;;;;;;40.47;23.47;;;;;;;4.50;100.00;101518.47;4934360;29;20043;-85
2023/02/16 10:07:38;;;;;;;46.30;27.73;;;;;;;4.70;100.00;101505.72;5004591;28;20135;-85
2023/02/16 10:10:06;;;;;;;45.70;23.80;;;;;;;4.89;100.00;101514.78;4915625;28;20102;-84
2023/02/16 10:12:40;;;;;;;39.87;23.77;;;;;;;4.90;100.00;101507.81;4934478;28;20047;-83
2023/02/16 10:15:07;;;;;;;;;;;;;;;4.91;100.00;101505.22;4921300;28;20507;-84
2023/02/16 10:17:58;;;;;;;38.80;22.97;;;;;;;4.95;100.00;101500.91;4952790;28;19926;-82
2023/02/16 10:20:31;;;;;;;39.80;22.47;;;;;;;4.87;100.00;101508.63;4932785;28;20051;-84
2023/02/16 10:23:10;;;;;;;39.17;22.35;;;;;;;4.90;100.00;101508.69;4928361;29;20047;-84
2023/02/16 10:25:56;;;;;;;39.67;23.43;;;;;;;5.08;100.00;101493.28;4986521;28;20048;-82
2023/02/16 10:28:41;;;;;;;40.97;22.73;;;;;;;5.28;100.00;101496.16;4921951;29;20046;-85
2023/02/16 10:31:27;;;;;;;37.23;20.83;;;;;;;5.26;100.00;101495.28;4916817;29;20612;-83
2023/02/16 10:34:21;;;;;;;47.27;24.87;;;;;;;5.30;100.00;101493.59;4995315;28;20067;-84
2023/02/16 10:37:01;;;;;;;37.90;22.90;;;;;;;5.35;100.00;101498.03;4915553;29;20713;-83
2023/02/16 10:39:37;;;;;;;40.87;24.67;;;;;;;5.49;100.00;101494.72;4915238;29;20050;-84
2023/02/16 10:42:16;;;;;;;38.57;22.93;;;;;;;5.71;100.00;101494.13;5007474;23;20063;-81
2023/02/16 10:44:48;;;;;;;39.93;23.70;;;;;;;5.76;100.00;101483.72;4951318;28;20062;-81
2023/02/16 10:47:27;;;;;;;42.77;23.57;;;;;;;5.97;100.00;101480.47;4975982;28;20038;-81
2023/02/16 10:49:54;;;;;;;40.77;25.07;;;;;;;6.17;100.00;101481.59;4965056;28;20043;-80
2023/02/16 10:52:21;;;;;;;39.63;21.67;;;;;;;6.31;100.00;101476.50;5031370;28;20512;-81
2023/02/16 10:54:48;;;;;;;41.73;23.67;;;;;;;6.52;100.00;101479.31;5065252;28;20059;-80
2023/02/16 10:57:35;;;;;;;41.13;23.90;;;;;;;6.56;100.00;101478.50;5005131;28;20034;-81
2023/02/16 11:00:05;;;;;;;41.70;23.90;;;;;;;6.60;100.00;101471.53;4973934;28;20047;-81
2023/02/16 11:02:38;;;;;;;43.03;25.50;;;;;;;6.64;100.00;101468.94;4940545;28;20046;-79
2023/02/16 11:05:26;;;;;;;37.60;21.97;;;;;;;6.68;100.00;101461.97;4956073;28;20138;-80
2023/02/16 11:08:00;;;;;;;41.03;23.80;;;;;;;6.87;100.00;101461.22;4971701;28;20046;-81
2023/02/16 11:10:40;;;;;;;42.05;23.23;;;;;;;7.12;100.00;101464.91;4960021;28;20062;-82
2023/02/16 11:13:18;;;;;;;35.67;21.33;;;;;;;7.33;100.00;101464.19;4973769;28;20039;-82
2023/02/16 11:15:50;;;;;;;39.77;23.67;;;;;;;7.56;99.84;101462.50;4946159;28;20035;-82
2023/02/16 11:18:35;;;;;;;35.40;22.60;;;;;;;7.72;98.71;101458.22;4965657;28;20467;-81
2023/02/16 11:21:02;;;;;;;;;;;;;;;7.76;92.24;101451.22;4980656;28;20842;-82
2023/02/16 11:23:33;;;;;;;37.70;24.30;;;;;;;7.79;93.99;101446.84;4977257;28;19926;-83
2023/02/16 11:26:09;;;;;;;42.63;24.37;;;;;;;7.92;93.73;101449.53;4977266;28;20058;-81
2023/02/16 11:28:37;;;;;;;34.60;22.93;;;;;;;7.95;94.67;101446.91;4967364;28;20039;-81
2023/02/16 11:31:17;;;;;;;42.30;24.80;;;;;;;8.07;93.21;101441.66;4937021;29;20035;-81
2023/02/16 11:34:05;;;;;;;35.53;23.13;;;;;;;8.21;88.73;101445.19;4951031;29;20054;-82
2023/02/16 11:36:41;;;;;;;35.00;22.63;;;;;;;8.30;90.41;101445.22;4927494;28;20051;-81
2023/02/16 11:39:36;;;;;;;38.97;23.63;;;;;;;8.23;88.28;101443.44;4961067;28;20043;-81
2023/02/16 11:42:06;;;;;;;40.90;24.95;;;;;;;8.18;90.49;101434.69;4957747;28;20059;-80
2023/02/16 11:44:36;;;;;;;38.42;24.23;;;;;;;8.18;91.25;101435.56;4962171;28;20045;-81
2023/02/16 11:47:21;;;;;;;41.63;26.03;;;;;;;8.34;87.02;101436.47;4977961;28;20062;-82
2023/02/16 11:49:50;;;;;;;39.00;24.43;;;;;;;8.42;87.65;101436.50;4976059;28;20503;-81
2023/02/16 11:52:23;;;;;;;44.38;25.67;;;;;;;8.59;88.43;101436.50;4962417;28;20054;-80
2023/02/16 11:54:52;;;;;;;35.05;22.48;;;;;;;8.71;88.76;101436.50;4962401;28;20042;-79
2023/02/16 11:57:28;;;;;;;44.35;28.63;;;;;;;8.74;86.46;101434.75;4965105;28;20062;-80
2023/02/16 11:59:56;;;;;;;42.95;26.95;;;;;;;8.64;85.57;101438.25;5029014;28;20059;-80
2023/02/16 12:02:34;;;;;;;39.13;26.95;;;;;;;8.53;87.31;101434.75;4955953;28;20055;-82